Time;durP1;ratioP1;P1;durP2;ratioP2;P2;SDS_P1;SDS_P2;PMS_P1;PMS_P2;Temp;Humidity;BMP_temperature;BMP_pressure;BME280_temperature;BME280_humidity;BME280_pressure;Samples;Min_cycle;Max_cycle;Signal;HPM_P1;HPM_P2
2023/04/09 00:00:37;;;;;;;;;;;6.90;99.90;;;;;;5007068;28;19920;-63
2023/04/09 00:03:02;;;;;;;;;;;6.80;99.90;;;;;;5009171;28;20005;-62
2023/04/09 00:05:28;;;;;;;;;;;6.80;99.90;;;;;;5004823;28;19967;-60
2023/04/09 00:07:53;;;;;;;;;;;6.80;99.90;;;;;;5002547;28;20399;-62
2023/04/09 00:10:19;;;;;;;;;;;6.80;99.90;;;;;;5009892;28;19992;-60
2023/04/09 00:12:44;;;;;;;;;;;6.80;99.90;;;;;;5009975;28;19917;-62
2023/04/09 00:15:10;;;;;;;;;;;6.90;99.90;;;;;;5006563;28;19913;-63
2023/04/09 00:17:35;;;;;;;;;;;6.80;99.90;;;;;;5002351;28;19921;-61
2023/04/09 00:20:01;;;;;;;;;;;6.90;99.90;;;;;;5008862;28;19917;-61
2023/04/09 00:22:27;;;;;;;;;;;6.80;99.90;;;;;;5005194;28;20311;-63
2023/04/09 00:24:52;;;;;;;;;;;6.90;99.90;;;;;;5006190;28;19914;-60
2023/04/09 00:27:18;;;;;;;;;;;6.80;99.90;;;;;;5005317;28;19926;-61
2023/04/09 00:29:43;;;;;;;;;;;6.90;99.90;;;;;;5006044;28;20406;-64
2023/04/09 00:32:09;;;;;;;;;;;6.90;99.90;;;;;;5009484;28;19919;-61
2023/04/09 00:34:34;;;;;;;;;;;6.90;99.90;;;;;;5009399;28;19917;-62
2023/04/09 00:37:00;;;;;;;;;;;6.80;99.90;;;;;;5002926;28;19917;-62
2023/04/09 00:39:25;;;;;;;;;;;6.80;99.90;;;;;;5005559;28;19968;-64
2023/04/09 00:41:58;;;;;;;;;;;6.80;99.90;;;;;;5005375;28;20284;-63
2023/04/09 00:44:24;;;;;;;;;;;6.70;99.90;;;;;;5006309;28;19942;-62
2023/04/09 00:46:49;;;;;;;;;;;6.60;99.90;;;;;;5001733;28;19996;-61
2023/04/09 00:49:15;;;;;;;;;;;6.50;99.90;;;;;;5002737;28;20016;-63
2023/04/09 00:51:41;;;;;;;;;;;6.50;99.90;;;;;;5002369;28;19914;-63
2023/04/09 00:54:06;;;;;;;;;;;6.50;99.90;;;;;;5008936;28;20000;-62
2023/04/09 00:56:32;;;;;;;;;;;6.50;99.90;;;;;;5007058;28;19988;-61
2023/04/09 00:58:58;;;;;;;;;;;6.60;99.90;;;;;;5009916;28;20387;-63
2023/04/09 01:01:23;;;;;;;;;;;6.60;99.90;;;;;;5008528;28;19960;-60
2023/04/09 01:03:49;;;;;;;;;;;6.70;99.90;;;;;;5008925;28;20021;-63
2023/04/09 01:06:35;;;;;;;;;;;6.70;99.90;;;;;;5008009;28;19925;-61
2023/04/09 01:09:00;;;;;;;;;;;6.70;99.90;;;;;;5003538;28;20391;-63
2023/04/09 01:11:35;;;;;;;;;;;6.80;99.90;;;;;;5006118;28;19917;-60
2023/04/09 01:14:03;;;;;;;;;;;6.80;99.90;;;;;;5010174;28;19921;-60
2023/04/09 01:16:31;;;;;;;;;;;6.80;99.90;;;;;;5010224;28;19914;-60
2023/04/09 01:18:59;;;;;;;;;;;6.90;99.90;;;;;;5006518;28;19924;-60
2023/04/09 01:21:30;;;;;;;;;;;6.90;99.90;;;;;;5004394;28;20016;-62
2023/04/09 01:24:18;;;;;;;;;;;6.90;99.90;;;;;;5010049;28;19913;-61
2023/04/09 01:26:47;;;;;;;;;;;6.90;99.90;;;;;;5008969;28;21272;-61
2023/04/09 01:29:14;;;;;;;;;;;6.90;99.90;;;;;;5004800;28;19973;-63
2023/04/09 01:31:41;;;;;;;;;;;6.90;99.90;;;;;;5004771;28;19913;-63
2023/04/09 01:34:07;;;;;;;;;;;6.90;99.90;;;;;;5005619;28;19929;-62
2023/04/09 01:36:34;;;;;;;;;;;6.90;99.90;;;;;;5009709;28;19913;-61
2023/04/09 01:39:00;;;;;;;;;;;6.90;99.90;;;;;;5008046;28;19913;-62
2023/04/09 01:41:26;;;;;;;;;;;6.90;99.90;;;;;;5004769;28;20295;-61
2023/04/09 01:43:52;;;;;;;;;;;6.90;99.90;;;;;;5010041;28;19914;-62
2023/04/09 01:46:18;;;;;;;;;;;6.90;99.90;;;;;;5004842;28;20435;-63
2023/04/09 01:48:45;;;;;;;;;;;6.90;99.90;;;;;;5005707;28;19932;-62
2023/04/09 01:51:13;;;;;;;;;;;6.90;99.90;;;;;;5003131;28;19992;-62
2023/04/09 01:53:38;;;;;;;;;;;6.90;99.90;;;;;;5011757;28;20004;-62
2023/04/09 01:56:04;;;;;;;;;;;6.90;99.90;;;;;;5010927;28;20051;-63
2023/04/09 01:58:32;;;;;;;;;;;6.90;99.90;;;;;;5006253;28;19956;-62
2023/04/09 02:01:18;;;;;;;;;;;6.90;99.90;;;;;;5004276;28;19914;-55
2023/04/09 02:03:53;;;;;;;;;;;6.90;99.90;;;;;;5008093;28;19960;-59
2023/04/09 02:06:18;;;;;;;;;;;6.90;99.90;;;;;;5006943;28;19983;-62
2023/04/09 02:08:45;;;;;;;;;;;6.90;99.90;;;;;;5008586;28;19921;-55
2023/04/09 02:11:12;;;;;;;;;;;6.80;99.90;;;;;;5006163;28;19984;-62
2023/04/09 02:13:39;;;;;;;;;;;6.90;99.90;;;;;;5006524;28;20402;-59
2023/04/09 02:16:05;;;;;;;;;;;6.80;99.90;;;;;;5008104;28;19921;-60
2023/04/09 02:18:31;;;;;;;;;;;6.90;99.90;;;;;;5004067;28;19914;-62
2023/04/09 02:20:57;;;;;;;;;;;6.90;99.90;;;;;;5005463;28;19917;-60
2023/04/09 02:23:23;;;;;;;;;;;6.90;99.90;;;;;;5009998;28;19913;-61
2023/04/09 02:25:49;;;;;;;;;;;6.80;99.90;;;;;;5007417;28;19968;-58
2023/04/09 02:28:14;;;;;;;;;;;6.70;99.90;;;;;;5003044;28;19929;-60
2023/04/09 02:30:40;;;;;;;;;;;6.60;99.90;;;;;;5007916;28;19924;-63
2023/04/09 02:33:05;;;;;;;;;;;6.50;99.90;;;;;;5002986;28;20036;-60
2023/04/09 02:35:31;;;;;;;;;;;6.50;99.90;;;;;;5004485;28;19921;-62
2023/04/09 02:37:56;;;;;;;;;;;6.50;99.90;;;;;;5007352;28;19945;-64
2023/04/09 02:40:21;;;;;;;;;;;6.60;99.90;;;;;;5003498;28;19968;-59
2023/04/09 02:42:47;;;;;;;;;;;6.50;99.90;;;;;;5005342;28;20399;-62
2023/04/09 02:45:12;;;;;;;;;;;6.50;99.90;;;;;;5006748;28;19913;-62
2023/04/09 02:47:38;;;;;;;;;;;6.50;99.90;;;;;;5007939;28;19971;-63
2023/04/09 02:50:04;;;;;;;;;;;6.40;99.90;;;;;;5005302;28;19960;-61
2023/04/09 02:52:29;;;;;;;;;;;6.50;99.90;;;;;;5006755;28;19913;-63
2023/04/09 02:54:55;;;;;;;;;;;6.40;99.90;;;;;;5002532;28;20359;-62
2023/04/09 02:57:20;;;;;;;;;;;6.40;99.90;;;;;;5006380;28;20358;-61
2023/04/09 02:59:46;;;;;;;;;;;6.40;99.90;;;;;;5004715;28;19913;-62
2023/04/09 03:02:11;;;;;;;;;;;6.40;99.90;;;;;;5005951;28;19955;-62
2023/04/09 03:04:37;;;;;;;;;;;6.30;99.90;;;;;;5007175;28;19921;-62
2023/04/09 03:07:03;;;;;;;;;;;6.20;99.90;;;;;;5007192;28;20130;-59
2023/04/09 03:09:29;;;;;;;;;;;6.10;99.90;;;;;;5008050;28;19964;-60
2023/04/09 03:11:56;;;;;;;;;;;6.10;99.90;;;;;;5005729;28;19949;-60
2023/04/09 03:14:24;;;;;;;;;;;6.10;99.90;;;;;;5007045;28;19917;-62
2023/04/09 03:16:50;;;;;;;;;;;6.10;99.90;;;;;;5007394;28;20116;-63
2023/04/09 03:19:15;;;;;;;;;;;6.10;99.90;;;;;;5006602;28;20307;-63
2023/04/09 03:21:41;;;;;;;;;;;6.10;99.90;;;;;;5003978;28;19963;-64
2023/04/09 03:24:06;;;;;;;;;;;6.10;99.90;;;;;;5005958;28;20555;-60
2023/04/09 03:26:35;;;;;;;;;;;6.10;99.90;;;;;;5005744;28;19925;-59
2023/04/09 03:29:03;;;;;;;;;;;6.10;99.90;;;;;;5006304;28;19922;-58
2023/04/09 03:31:29;;;;;;;;;;;6.00;99.90;;;;;;5006582;28;19921;-63
2023/04/09 03:33:55;;;;;;;;;;;5.80;99.90;;;;;;5006683;28;20291;-60
2023/04/09 03:36:20;;;;;;;;;;;5.70;99.90;;;;;;5004877;28;19960;-62
2023/04/09 03:38:45;;;;;;;;;;;5.70;99.90;;;;;;5008979;28;19914;-63
2023/04/09 03:41:11;;;;;;;;;;;5.70;99.90;;;;;;5004889;28;19918;-61
2023/04/09 03:43:36;;;;;;;;;;;5.70;99.90;;;;;;4999849;28;20006;-60
2023/04/09 03:46:09;;;;;;;;;;;5.60;99.90;;;;;;5004885;28;20446;-63
2023/04/09 03:48:35;;;;;;;;;;;5.60;99.90;;;;;;5007299;28;19917;-61
2023/04/09 03:51:00;;;;;;;;;;;5.50;99.90;;;;;;5004644;28;20308;-62
2023/04/09 03:53:26;;;;;;;;;;;5.60;99.90;;;;;;4997582;28;19996;-59
2023/04/09 03:55:51;;;;;;;;;;;5.50;99.90;;;;;;5002953;28;19949;-62
2023/04/09 03:58:17;;;;;;;;;;;5.40;99.90;;;;;;5004261;28;19964;-63
2023/04/09 04:00:43;;;;;;;;;;;5.40;99.90;;;;;;5006365;28;19913;-61
2023/04/09 04:03:10;;;;;;;;;;;5.30;99.90;;;;;;5005005;28;19921;-61
2023/04/09 04:05:35;;;;;;;;;;;5.30;99.90;;;;;;5000550;28;20343;-63
2023/04/09 04:08:00;;;;;;;;;;;5.20;99.90;;;;;;5003438;28;19940;-63
2023/04/09 04:10:26;;;;;;;;;;;5.20;99.90;;;;;;5004914;28;20323;-63
2023/04/09 04:12:51;;;;;;;;;;;5.20;99.90;;;;;;5002898;28;20307;-60
2023/04/09 04:15:18;;;;;;;;;;;5.40;99.90;;;;;;5000739;28;19921;-63
2023/04/09 04:17:44;;;;;;;;;;;5.40;99.90;;;;;;5003124;28;20244;-64
2023/04/09 04:20:10;;;;;;;;;;;5.50;99.90;;;;;;5005064;28;19925;-62
2023/04/09 04:22:35;;;;;;;;;;;5.50;99.90;;;;;;5007095;28;19924;-62
2023/04/09 04:25:02;;;;;;;;;;;5.50;99.90;;;;;;5001645;28;19924;-63
2023/04/09 04:27:27;;;;;;;;;;;5.60;99.90;;;;;;5004736;28;19934;-62
2023/04/09 04:29:53;;;;;;;;;;;5.40;99.90;;;;;;5006015;28;19920;-62
2023/04/09 04:32:18;;;;;;;;;;;5.40;99.90;;;;;;5006035;28;19913;-59
2023/04/09 04:34:47;;;;;;;;;;;5.40;99.90;;;;;;5006860;28;20273;-59
2023/04/09 04:37:12;;;;;;;;;;;5.30;99.90;;;;;;5004959;28;19922;-63
2023/04/09 04:39:38;;;;;;;;;;;5.20;99.90;;;;;;5006472;28;19925;-62
2023/04/09 04:42:03;;;;;;;;;;;5.20;99.90;;;;;;5008442;28;19913;-60
2023/04/09 04:44:29;;;;;;;;;;;5.10;99.90;;;;;;5005689;28;19917;-62
2023/04/09 04:46:54;;;;;;;;;;;5.20;99.90;;;;;;5008478;28;19929;-60
2023/04/09 04:49:20;;;;;;;;;;;5.20;99.90;;;;;;5005849;28;20648;-61
2023/04/09 04:51:45;;;;;;;;;;;5.20;99.90;;;;;;5007626;28;19961;-62
2023/04/09 04:54:11;;;;;;;;;;;5.10;99.90;;;;;;5009764;28;19921;-56
2023/04/09 04:56:36;;;;;;;;;;;5.10;99.90;;;;;;5010294;28;19927;-62
2023/04/09 04:59:01;;;;;;;;;;;5.00;99.90;;;;;;5008529;28;19949;-62
2023/04/09 05:01:27;;;;;;;;;;;5.00;99.90;;;;;;5007114;28;20488;-59
2023/04/09 05:03:52;;;;;;;;;;;5.00;99.90;;;;;;5003744;28;19918;-60
2023/04/09 05:06:18;;;;;;;;;;;5.00;99.90;;;;;;5007926;28;19918;-61
2023/04/09 05:08:43;;;;;;;;;;;5.00;99.90;;;;;;5009586;28;19921;-57
2023/04/09 05:11:12;;;;;;;;;;;4.90;99.90;;;;;;5010190;28;19959;-59
2023/04/09 05:13:37;;;;;;;;;;;5.00;99.90;;;;;;5009553;28;19922;-54
2023/04/09 05:16:03;;;;;;;;;;;5.00;99.90;;;;;;5004254;28;20372;-58
2023/04/09 05:18:28;;;;;;;;;;;5.10;99.90;;;;;;4999476;28;19945;-58
2023/04/09 05:20:53;;;;;;;;;;;5.10;99.90;;;;;;5002988;28;19918;-56
2023/04/09 05:23:19;;;;;;;;;;;5.20;99.90;;;;;;5003004;28;19921;-55
2023/04/09 05:25:46;;;;;;;;;;;5.20;99.90;;;;;;5005684;28;20356;-56
2023/04/09 05:28:12;;;;;;;;;;;5.30;99.90;;;;;;5002693;28;20005;-53
2023/04/09 05:30:37;;;;;;;;;;;5.50;99.90;;;;;;5001262;28;19969;-59
2023/04/09 05:33:03;;;;;;;;;;;5.60;99.90;;;;;;5007419;28;19953;-57
2023/04/09 05:35:28;;;;;;;;;;;5.70;99.90;;;;;;5009874;28;19921;-53
2023/04/09 05:37:54;;;;;;;;;;;5.70;99.90;;;;;;5011112;28;19917;-58
2023/04/09 05:40:19;;;;;;;;;;;5.80;99.90;;;;;;5008809;28;19917;-56
2023/04/09 05:42:45;;;;;;;;;;;5.80;99.90;;;;;;5007631;28;20012;-56
2023/04/09 05:45:10;;;;;;;;;;;6.00;99.90;;;;;;5006059;28;19909;-56
2023/04/09 05:47:36;;;;;;;;;;;6.00;99.90;;;;;;5008993;28;20272;-57
2023/04/09 05:50:02;;;;;;;;;;;6.10;99.90;;;;;;5010288;28;19988;-56
2023/04/09 05:52:27;;;;;;;;;;;6.10;99.90;;;;;;5007075;28;19926;-56
2023/04/09 05:54:53;;;;;;;;;;;6.20;99.90;;;;;;5008781;28;19913;-57
2023/04/09 05:57:18;;;;;;;;;;;6.20;99.90;;;;;;5011554;28;20372;-55
2023/04/09 05:59:44;;;;;;;;;;;6.30;99.90;;;;;;5005004;28;20339;-56
2023/04/09 06:02:09;;;;;;;;;;;6.30;99.90;;;;;;5003947;28;20355;-56
2023/04/09 06:04:35;;;;;;;;;;;6.40;99.90;;;;;;5006448;28;19917;-58
2023/04/09 06:07:00;;;;;;;;;;;6.50;99.90;;;;;;5011029;28;20303;-56
2023/04/09 06:09:28;;;;;;;;;;;6.60;99.90;;;;;;5009639;28;19919;-57
2023/04/09 06:11:54;;;;;;;;;;;6.60;99.90;;;;;;5008482;28;19929;-56
2023/04/09 06:14:20;;;;;;;;;;;6.70;99.90;;;;;;5007351;28;19965;-57
2023/04/09 06:16:45;;;;;;;;;;;6.70;99.90;;;;;;5005851;28;19913;-59
2023/04/09 06:19:11;;;;;;;;;;;6.80;99.90;;;;;;5010080;28;19913;-57
2023/04/09 06:21:36;;;;;;;;;;;6.80;99.90;;;;;;5007470;28;19989;-57
2023/04/09 06:24:02;;;;;;;;;;;6.90;99.90;;;;;;5009977;28;20005;-56
2023/04/09 06:26:27;;;;;;;;;;;7.00;99.90;;;;;;5009662;28;20276;-56
2023/04/09 06:28:53;;;;;;;;;;;7.00;99.90;;;;;;5011057;28;19913;-57
2023/04/09 06:31:19;;;;;;;;;;;7.10;99.90;;;;;;5004141;28;20413;-57
2023/04/09 06:33:44;;;;;;;;;;;7.10;99.90;;;;;;5008272;28;19973;-60
2023/04/09 06:36:10;;;;;;;;;;;7.10;99.90;;;;;;5011346;28;20381;-57
2023/04/09 06:38:35;;;;;;;;;;;7.10;99.90;;;;;;5008831;28;19989;-59
2023/04/09 06:41:01;;;;;;;;;;;7.10;99.90;;;;;;5006414;28;19926;-56
2023/04/09 06:43:26;;;;;;;;;;;7.10;99.90;;;;;;5009897;28;19913;-58
2023/04/09 06:45:52;;;;;;;;;;;7.10;99.90;;;;;;5005080;28;19987;-58
2023/04/09 06:48:17;;;;;;;;;;;7.20;99.90;;;;;;5008932;28;19986;-58
2023/04/09 06:50:43;;;;;;;;;;;7.20;99.90;;;;;;5007077;28;19918;-56
2023/04/09 06:53:08;;;;;;;;;;;7.30;99.90;;;;;;5008927;28;19909;-55
2023/04/09 06:55:34;;;;;;;;;;;7.40;99.90;;;;;;5005232;28;20633;-53
2023/04/09 06:58:01;;;;;;;;;;;7.40;99.90;;;;;;5002716;28;19913;-53
2023/04/09 07:00:26;;;;;;;;;;;7.50;99.90;;;;;;5004252;28;20057;-53
2023/04/09 07:02:52;;;;;;;;;;;7.60;99.90;;;;;;5007884;28;19914;-56
2023/04/09 07:05:18;;;;;;;;;;;7.60;99.90;;;;;;5007339;28;19963;-52
2023/04/09 07:07:44;;;;;;;;;;;7.70;99.90;;;;;;5009879;28;19945;-53
2023/04/09 07:10:09;;;;;;;;;;;7.80;99.90;;;;;;5007101;28;19918;-57
2023/04/09 07:12:35;;;;;;;;;;;7.90;99.90;;;;;;5006531;28;19972;-57
2023/04/09 07:15:01;;;;;;;;;;;7.90;99.90;;;;;;5007711;28;19968;-53
2023/04/09 07:17:26;;;;;;;;;;;8.00;99.90;;;;;;5005796;28;19991;-52
2023/04/09 07:19:53;;;;;;;;;;;8.10;99.90;;;;;;5004840;28;20376;-57
2023/04/09 07:22:21;;;;;;;;;;;8.10;99.90;;;;;;5005243;28;20398;-52
2023/04/09 07:24:52;;;;;;;;;;;8.20;99.90;;;;;;5007115;28;19913;-57
2023/04/09 07:27:24;;;;;;;;;;;8.30;99.90;;;;;;5005571;28;20399;-56
2023/04/09 07:29:50;;;;;;;;;;;8.40;99.90;;;;;;5004066;28;19924;-59
2023/04/09 07:32:16;;;;;;;;;;;8.40;99.90;;;;;;5005230;28;19929;-55
2023/04/09 07:34:44;;;;;;;;;;;8.50;99.90;;;;;;5005866;28;19914;-56
2023/04/09 07:37:10;;;;;;;;;;;8.60;99.90;;;;;;5009293;28;19927;-56
2023/04/09 07:39:36;;;;;;;;;;;8.60;99.90;;;;;;5007776;28;20004;-54
2023/04/09 07:42:01;;;;;;;;;;;8.80;99.90;;;;;;5006121;28;20000;-54
2023/04/09 07:44:28;;;;;;;;;;;8.70;99.90;;;;;;5005716;28;20434;-59
2023/04/09 07:46:53;;;;;;;;;;;8.80;99.90;;;;;;5005613;28;19917;-57
2023/04/09 07:49:20;;;;;;;;;;;8.90;99.90;;;;;;5008788;28;20383;-57
2023/04/09 07:51:45;;;;;;;;;;;9.00;99.90;;;;;;5011191;28;19971;-58
2023/04/09 07:54:11;;;;;;;;;;;9.10;99.90;;;;;;5007678;28;19949;-56
2023/04/09 07:56:36;;;;;;;;;;;9.20;99.90;;;;;;5007615;28;19921;-57
2023/04/09 07:59:02;;;;;;;;;;;9.30;99.90;;;;;;5006396;28;21500;-55
2023/04/09 08:01:27;;;;;;;;;;;9.30;99.90;;;;;;5002386;28;19924;-53
2023/04/09 08:03:53;;;;;;;;;;;9.30;99.90;;;;;;5007151;28;19917;-53
2023/04/09 08:06:18;;;;;;;;;;;9.40;99.90;;;;;;5006818;28;19917;-59
2023/04/09 08:08:43;;;;;;;;;;;9.50;99.90;;;;;;5006082;28;19975;-57
2023/04/09 08:11:09;;;;;;;;;;;9.50;99.90;;;;;;5007437;28;19959;-54
2023/04/09 08:13:34;;;;;;;;;;;9.60;99.90;;;;;;5007685;28;19917;-57
2023/04/09 08:16:00;;;;;;;;;;;9.70;99.90;;;;;;5000956;28;19952;-58
2023/04/09 08:18:26;;;;;;;;;;;9.80;99.90;;;;;;5006993;28;19920;-56
2023/04/09 08:20:52;;;;;;;;;;;10.00;99.90;;;;;;5007264;28;19918;-55
2023/04/09 08:23:17;;;;;;;;;;;10.10;99.90;;;;;;5006667;28;19972;-59
2023/04/09 08:25:42;;;;;;;;;;;10.10;99.90;;;;;;5003690;28;19909;-56
2023/04/09 08:28:08;;;;;;;;;;;10.20;99.90;;;;;;5007279;28;19917;-57
2023/04/09 08:30:34;;;;;;;;;;;10.30;99.90;;;;;;5003735;28;19914;-59
2023/04/09 08:33:00;;;;;;;;;;;10.40;99.90;;;;;;5010277;28;20409;-58
2023/04/09 08:35:27;;;;;;;;;;;10.60;99.90;;;;;;5007969;28;19960;-57
2023/04/09 08:37:53;;;;;;;;;;;10.70;99.90;;;;;;5007008;28;20000;-58
2023/04/09 08:40:19;;;;;;;;;;;10.80;99.90;;;;;;5007862;28;20236;-53
2023/04/09 08:42:45;;;;;;;;;;;10.90;99.90;;;;;;5008067;28;20001;-54
2023/04/09 08:45:11;;;;;;;;;;;11.00;99.90;;;;;;5004988;28;20392;-58
2023/04/09 08:47:37;;;;;;;;;;;11.00;99.90;;;;;;5003556;28;19966;-58
2023/04/09 08:50:03;;;;;;;;;;;11.00;99.90;;;;;;5004322;28;19909;-59
2023/04/09 08:52:32;;;;;;;;;;;11.10;99.90;;;;;;5009458;28;19917;-54
2023/04/09 08:54:58;;;;;;;;;;;11.20;99.90;;;;;;5008157;28;19917;-57
2023/04/09 08:57:23;;;;;;;;;;;11.30;99.90;;;;;;5003455;28;21755;-56
2023/04/09 08:59:49;;;;;;;;;;;11.40;99.90;;;;;;5006551;28;19952;-58
2023/04/09 09:02:14;;;;;;;;;;;11.50;99.90;;;;;;5006827;28;20019;-58
2023/04/09 09:04:46;;;;;;;;;;;11.60;99.90;;;;;;5007893;28;20448;-58
2023/04/09 09:07:12;;;;;;;;;;;11.70;99.90;;;;;;5006337;28;20292;-55
2023/04/09 09:09:51;;;;;;;;;;;11.80;99.90;;;;;;5008135;28;19918;-58
2023/04/09 09:12:29;;;;;;;;;;;11.90;99.90;;;;;;5003645;28;19948;-57
2023/04/09 09:14:55;;;;;;;;;;;12.00;99.90;;;;;;5008309;28;19973;-53
2023/04/09 09:17:20;;;;;;;;;;;12.20;99.90;;;;;;5006439;28;19925;-59
2023/04/09 09:19:45;;;;;;;;;;;12.30;99.90;;;;;;5008799;28;19975;-56
2023/04/09 09:22:12;;;;;;;;;;;12.40;99.90;;;;;;5005750;28;19922;-56
2023/04/09 09:24:50;;;;;;;;;;;12.50;99.90;;;;;;5008065;28;19921;-58
2023/04/09 09:27:35;;;;;;;;;;;12.60;99.90;;;;;;5008234;28;19918;-60
2023/04/09 09:30:02;;;;;;;;;;;12.80;99.90;;;;;;5009615;28;19917;-57
2023/04/09 09:32:28;;;;;;;;;;;12.90;99.90;;;;;;5007816;28;19918;-52
2023/04/09 09:35:00;;;;;;;;;;;12.90;99.90;;;;;;5007061;28;19996;-55
2023/04/09 09:37:29;;;;;;;;;;;13.10;99.90;;;;;;4998778;28;19913;-59
2023/04/09 09:39:54;;;;;;;;;;;13.20;99.90;;;;;;5006996;28;19913;-57
2023/04/09 09:42:20;;;;;;;;;;;13.40;99.90;;;;;;5008900;28;19914;-57
2023/04/09 09:44:46;;;;;;;;;;;13.50;99.90;;;;;;5011464;28;19992;-53
2023/04/09 09:47:14;;;;;;;;;;;13.60;99.90;;;;;;5010973;28;19958;-53
2023/04/09 09:49:40;;;;;;;;;;;13.80;99.90;;;;;;5010179;28;20015;-53
2023/04/09 09:52:07;;;;;;;;;;;13.70;99.90;;;;;;5012484;28;19996;-58
2023/04/09 09:54:38;;;;;;;;;;;13.90;99.90;;;;;;5008377;28;19918;-55
2023/04/09 09:57:06;;;;;;;;;;;14.10;99.90;;;;;;5003027;28;19971;-59
2023/04/09 09:59:34;;;;;;;;;;;14.30;99.90;;;;;;5008961;28;19914;-55
2023/04/09 10:02:02;;;;;;;;;;;14.60;99.90;;;;;;5008532;28;20295;-55
2023/04/09 10:04:28;;;;;;;;;;;14.80;99.90;;;;;;5010948;28;19960;-56
2023/04/09 10:06:55;;;;;;;;;;;14.70;99.90;;;;;;5007087;28;19917;-57
2023/04/09 10:09:21;;;;;;;;;;;14.80;99.90;;;;;;5009858;28;19953;-56
2023/04/09 10:11:47;;;;;;;;;;;15.00;99.90;;;;;;5005535;28;19919;-56
2023/04/09 10:14:13;;;;;;;;;;;14.80;99.90;;;;;;5006581;28;19913;-52
2023/04/09 10:16:39;;;;;;;;;;;14.60;99.90;;;;;;5005031;28;19918;-58
2023/04/09 10:19:06;;;;;;;;;;;14.50;99.90;;;;;;5005709;28;19917;-55
2023/04/09 10:21:53;;;;;;;;;;;14.50;99.90;;;;;;5002975;28;19925;-54
2023/04/09 10:24:19;;;;;;;;;;;14.40;99.90;;;;;;5008839;28;19968;-57
2023/04/09 10:26:45;;;;;;;;;;;14.60;99.90;;;;;;5006704;28;19925;-59
2023/04/09 10:29:15;;;;;;;;;;;14.80;99.90;;;;;;5006766;28;19929;-57
2023/04/09 10:31:50;;;;;;;;;;;14.90;99.90;;;;;;5011079;28;19917;-57
2023/04/09 10:34:16;;;;;;;;;;;14.90;99.90;;;;;;5009328;28;19968;-55
2023/04/09 10:36:43;;;;;;;;;;;14.80;99.90;;;;;;5011467;28;20398;-55
2023/04/09 10:39:12;;;;;;;;;;;14.60;99.90;;;;;;5009587;28;19914;-57
2023/04/09 10:41:38;;;;;;;;;;;14.70;99.90;;;;;;5003429;28;19918;-53
2023/04/09 10:44:18;;;;;;;;;;;14.80;99.90;;;;;;5006811;28;20720;-54
2023/04/09 10:46:44;;;;;;;;;;;15.30;99.90;;;;;;5008191;28;19971;-56
2023/04/09 10:49:16;;;;;;;;;;;15.90;99.90;;;;;;5010692;28;19913;-55
2023/04/09 10:51:46;;;;;;;;;;;16.10;99.90;;;;;;5009562;28;19921;-57
2023/04/09 10:54:31;;;;;;;;;;;15.90;99.90;;;;;;4999994;28;19922;-53
2023/04/09 10:57:05;;;;;;;;;;;15.50;99.90;;;;;;5004765;28;19960;-52
2023/04/09 10:59:31;;;;;;;;;;;15.30;99.90;;;;;;5010817;28;20280;-52
2023/04/09 11:01:57;;;;;;;;;;;15.20;99.90;;;;;;5008429;28;20001;-54
2023/04/09 11:04:27;;;;;;;;;;;15.10;99.90;;;;;;5006115;28;20343;-55
2023/04/09 11:06:53;;;;;;;;;;;15.20;99.90;;;;;;5006166;28;19921;-58
2023/04/09 11:09:19;;;;;;;;;;;15.10;99.90;;;;;;5009123;28;19933;-56
2023/04/09 11:11:50;;;;;;;;;;;15.00;99.90;;;;;;5009482;28;20016;-55
2023/04/09 11:14:19;;;;;;;;;;;15.00;99.90;;;;;;5006266;28;20399;-55
2023/04/09 11:16:46;;;;;;;;;;;14.90;99.90;;;;;;5011047;28;19976;-57
2023/04/09 11:19:12;;;;;;;;;;;15.30;99.90;;;;;;5006236;28;19956;-56
2023/04/09 11:21:44;;;;;;;;;;;15.80;99.90;;;;;;5005286;28;20403;-56
2023/04/09 11:24:13;;;;;;;;;;;15.80;99.90;;;;;;5005871;28;19979;-57
2023/04/09 11:26:39;;;;;;;;;;;15.80;99.90;;;;;;5007768;28;20429;-53
2023/04/09 11:29:07;;;;;;;;;;;15.40;99.00;;;;;;5010701;28;19918;-56
2023/04/09 11:31:32;;;;;;;;;;;15.40;99.90;;;;;;5008243;28;19949;-56
2023/04/09 11:33:57;;;;;;;;;;;15.30;99.90;;;;;;5009221;28;19976;-58
2023/04/09 11:36:23;;;;;;;;;;;15.40;99.90;;;;;;5006139;28;20396;-56
2023/04/09 11:38:49;;;;;;;;;;;15.40;99.90;;;;;;5009662;28;19983;-56
2023/04/09 11:41:15;;;;;;;;;;;15.60;99.90;;;;;;5005955;28;19918;-54
2023/04/09 11:43:40;;;;;;;;;;;15.40;99.90;;;;;;5010093;28;19921;-56
2023/04/09 11:46:06;;;;;;;;;;;15.40;99.90;;;;;;5005100;28;19963;-53
2023/04/09 11:48:32;;;;;;;;;;;15.50;99.90;;;;;;5006872;28;19921;-53
2023/04/09 11:50:58;;;;;;;;;;;16.00;99.90;;;;;;5010727;28;19921;-57
2023/04/09 11:53:28;;;;;;;;;;;16.60;99.90;;;;;;5007650;28;19924;-58
2023/04/09 11:55:54;;;;;;;;;;;16.30;99.90;;;;;;5006637;28;20000;-55
2023/04/09 11:58:25;;;;;;;;;;;16.10;99.90;;;;;;5009725;28;19913;-56
2023/04/09 12:00:54;;;;;;;;;;;16.10;98.70;;;;;;5005368;28;19921;-54
2023/04/09 12:03:26;;;;;;;;;;;15.40;99.90;;;;;;5009040;28;20043;-55
2023/04/09 12:05:52;;;;;;;;;;;15.50;99.90;;;;;;5003325;28;19920;-55
2023/04/09 12:08:21;;;;;;;;;;;15.60;99.90;;;;;;5009711;28;19922;-55
2023/04/09 12:10:47;;;;;;;;;;;15.70;99.90;;;;;;5005435;28;19921;-54
2023/04/09 12:13:12;;;;;;;;;;;15.80;99.90;;;;;;5007223;28;19914;-58
2023/04/09 12:15:40;;;;;;;;;;;15.70;99.90;;;;;;5005167;28;19917;-59
2023/04/09 12:18:09;;;;;;;;;;;15.70;99.90;;;;;;5004530;28;19917;-55
2023/04/09 12:20:35;;;;;;;;;;;15.70;99.90;;;;;;5004231;28;19940;-55
2023/04/09 12:23:02;;;;;;;;;;;15.50;99.90;;;;;;5008890;28;20002;-61
2023/04/09 12:25:35;;;;;;;;;;;15.40;99.90;;;;;;5008900;28;19917;-57
2023/04/09 12:28:02;;;;;;;;;;;15.30;99.90;;;;;;5005913;28;19922;-57
2023/04/09 12:30:27;;;;;;;;;;;15.40;99.30;;;;;;5008208;28;19917;-57
2023/04/09 12:32:53;;;;;;;;;;;15.50;99.90;;;;;;5002482;28;20383;-54
2023/04/09 12:35:19;;;;;;;;;;;15.30;99.90;;;;;;5009258;28;19910;-57
2023/04/09 12:37:45;;;;;;;;;;;15.20;99.90;;;;;;5008328;28;20003;-54
2023/04/09 12:40:12;;;;;;;;;;;15.20;99.90;;;;;;5007322;28;19956;-53
2023/04/09 12:42:41;;;;;;;;;;;15.40;99.90;;;;;;5006553;28;20355;-59
2023/04/09 12:45:08;;;;;;;;;;;15.50;99.90;;;;;;5008011;28;20494;-55
2023/04/09 12:47:33;;;;;;;;;;;15.40;99.70;;;;;;5008911;28;19918;-53
2023/04/09 12:49:59;;;;;;;;;;;15.60;99.90;;;;;;5003622;28;19913;-54
2023/04/09 12:52:24;;;;;;;;;;;15.60;99.90;;;;;;5004194;28;20006;-55
2023/04/09 12:54:51;;;;;;;;;;;15.70;99.90;;;;;;5008326;28;19922;-58
2023/04/09 12:57:16;;;;;;;;;;;15.70;99.90;;;;;;5005458;28;19925;-55
2023/04/09 12:59:42;;;;;;;;;;;15.70;99.90;;;;;;5008485;28;20404;-58
2023/04/09 13:02:07;;;;;;;;;;;15.80;99.90;;;;;;5012158;28;20012;-57
2023/04/09 13:04:32;;;;;;;;;;;15.80;99.90;;;;;;5013729;28;19914;-56
2023/04/09 13:06:58;;;;;;;;;;;15.70;99.90;;;;;;5007582;28;19953;-56
2023/04/09 13:09:24;;;;;;;;;;;15.60;99.90;;;;;;5007925;28;19968;-58
2023/04/09 13:11:50;;;;;;;;;;;15.50;99.90;;;;;;5008955;28;19914;-55
2023/04/09 13:14:16;;;;;;;;;;;15.60;99.90;;;;;;5012540;28;19914;-60
2023/04/09 13:16:42;;;;;;;;;;;16.00;99.90;;;;;;5009629;28;19913;-56
2023/04/09 13:19:08;;;;;;;;;;;15.90;99.90;;;;;;5011551;28;20431;-59
2023/04/09 13:21:33;;;;;;;;;;;16.00;99.90;;;;;;5011400;28;19924;-56
2023/04/09 13:23:59;;;;;;;;;;;16.10;99.90;;;;;;5011164;28;20012;-58
2023/04/09 13:26:24;;;;;;;;;;;16.10;99.10;;;;;;5010418;28;19918;-58
2023/04/09 13:28:53;;;;;;;;;;;15.90;98.60;;;;;;5009270;28;19917;-58
2023/04/09 13:31:18;;;;;;;;;;;15.70;99.90;;;;;;5006822;28;19917;-58
2023/04/09 13:33:44;;;;;;;;;;;15.70;99.90;;;;;;5010876;28;20287;-55
2023/04/09 13:36:10;;;;;;;;;;;15.80;99.90;;;;;;5010326;28;20363;-55
2023/04/09 13:38:36;;;;;;;;;;;15.90;99.90;;;;;;5010619;28;19913;-53
2023/04/09 13:41:01;;;;;;;;;;;15.80;98.70;;;;;;5012413;28;20019;-56
2023/04/09 13:43:28;;;;;;;;;;;15.90;98.50;;;;;;5007452;28;20427;-55
2023/04/09 13:45:54;;;;;;;;;;;15.90;99.90;;;;;;5010932;28;20036;-55
2023/04/09 13:48:20;;;;;;;;;;;15.80;99.80;;;;;;5009462;28;19996;-58
2023/04/09 13:50:45;;;;;;;;;;;15.90;99.90;;;;;;5012257;28;19922;-58
2023/04/09 13:53:11;;;;;;;;;;;15.80;98.10;;;;;;5008056;28;19936;-55
2023/04/09 13:55:37;;;;;;;;;;;16.00;99.20;;;;;;5008964;28;19936;-58
2023/04/09 13:58:03;;;;;;;;;;;16.10;98.10;;;;;;5010428;28;19967;-58
2023/04/09 14:00:29;;;;;;;;;;;16.50;99.90;;;;;;5008486;28;19921;-57
2023/04/09 14:02:54;;;;;;;;;;;17.10;98.50;;;;;;5012493;28;19914;-56
2023/04/09 14:05:20;;;;;;;;;;;17.70;97.10;;;;;;5011922;28;20326;-56
2023/04/09 14:07:45;;;;;;;;;;;18.20;95.20;;;;;;5012707;28;20296;-57
2023/04/09 14:10:11;;;;;;;;;;;18.30;94.60;;;;;;5010732;28;19914;-56
2023/04/09 14:12:36;;;;;;;;;;;17.90;93.70;;;;;;5010936;28;19922;-56
2023/04/09 14:15:02;;;;;;;;;;;17.30;94.40;;;;;;5011420;28;20295;-57
2023/04/09 14:17:27;;;;;;;;;;;16.80;95.70;;;;;;5011098;28;19917;-56
2023/04/09 14:19:53;;;;;;;;;;;16.90;97.00;;;;;;5011206;28;19913;-55